• Join FlightAware (Why Join?)
  • Login
  • US Flag GB Flag 
13:08 EDT


 

Airport Tracker/Info


-or-


 

Live Flight TrackerFlight Track Log ✈ XOJ793 ✈ 10-Jul-2014 ✈ KSMF - KSNA

Flight Track Log - Related Links

Times and Time Zones

All times are in EDT time to prevent confusion due to time zone crossing. See the XOJ793 flight status page for this flight to view local times or setup timezone preferences in your user account.

Time Position Orientation Groundspeed Altitude Reporting Facility
EDT Latitude Longitude Course Direction KTS MPH feet Rate Location/Type
09:41 38.6500 -121.5833 130° Southeast 202 232 2,900  Level Northern Cal TRACON
09:42 38.6167 -121.5333 130° Southeast 254 292 5,400 2,820 Climbing Northern Cal TRACON
09:43 38.5414 -121.4039 127° Southeast 287 330 10,200 3,000 Climbing Oakland Center
09:45 38.5017 -121.3128 119° Southeast 291 335 13,200 2,880 Climbing Oakland Center
09:46 38.4606 -121.2194 119° Southeast 299 344 16,100 2,520 Climbing Oakland Center
09:47 38.4236 -121.1342 119° Southeast 304 350 18,400 1,380 Climbing Oakland Center
09:48 38.3775 -121.0244 118° Southeast 344 396 19,000 840 Climbing Oakland Center
09:49 38.3128 -120.8750 119° Southeast 399 459 20,200 1,740 Climbing Oakland Center
09:50 38.2603 -120.7536 119° Southeast 398 458 22,600 2,040 Climbing Oakland Center
09:51 38.1900 -120.6453 130° Southeast 398 458 24,400 1,800 Climbing Oakland Center
09:52 38.0989 -120.5556 142° Southeast 409 471 26,300 1,560 Climbing Oakland Center
09:53 38.0183 -120.4389 131° Southeast 443 510 27,600 1,560 Climbing Oakland Center
09:54 37.9461 -120.3106 125° Southeast 448 516 29,500 1,980 Climbing Oakland Center
09:55 37.8492 -120.2244 145° Southeast 427 491 31,700 1,680 Climbing Oakland Center
09:57 37.6094 -120.1456 165° South 445 512 34,800 1,620 Climbing Oakland Center
09:58 37.4889 -120.1072 166° South 446 513 36,700 1,380 Climbing Oakland Center
09:59 37.3667 -120.0661 165° South 452 520 37,700 1,320 Climbing Oakland Center
10:00 37.2425 -120.0242 165° South 461 531 39,500 1,680 Climbing Oakland Center
10:02 36.9775 -119.9356 165° South 455 524 42,900 1,500 Climbing Los Angeles Center
10:03 36.8575 -119.8986 166° South 452 520 44,100 960 Climbing Oakland Center
10:04 36.7369 -119.8581 165° South 451 519 45,000 420 Climbing Oakland Center
10:05 36.6125 -119.8189 166° South 454 522 45,000  Level Oakland Center
10:06 36.4836 -119.7753 165° South 470 541 45,000  Level Oakland Center
10:07 36.3533 -119.7342 166° South 477 549 45,000  Level Oakland Center
10:08 36.2233 -119.6922 165° South 479 551 45,000  Level Oakland Center
10:10 35.9322 -119.6136 162° South 485 558 45,000 -120 Level Los Angeles Center
10:11 35.7967 -119.6211 183° South 486 559 44,700 -780 Descending Los Angeles Center
10:12 35.6619 -119.6261 182° South 485 558 43,500 -1,260 Descending Oakland Center
10:13 35.5283 -119.6286 181° South 481 554 42,300 -1,200 Descending Oakland Center
10:14 35.4014 -119.5689 159° South 486 559 41,100 -1,200 Descending Oakland Center
10:15 35.2758 -119.4961 155° Southeast 492 566 39,900 -1,260 Descending Oakland Center
10:16 35.1258 -119.4100 155° Southeast 492 566 38,400 -1,260 Descending Los Angeles Center
10:17 35.0008 -119.3369 154° Southeast 492 566 37,200 -1,560 Descending Los Angeles Center
10:18 34.8736 -119.2642 155° Southeast 498 573 35,200 -2,340 Descending Los Angeles Center
10:19 34.7481 -119.1922 155° Southeast 499 574 32,400 -2,760 Descending Los Angeles Center
10:20 34.6156 -119.1194 156° South 500 575 29,500 -2,760 Descending Los Angeles Center
10:21 34.4881 -119.0458 155° Southeast 506 582 26,700 -2,760 Descending Los Angeles Center
10:22 34.3603 -118.9744 155° Southeast 507 583 23,900 -2,460 Descending Los Angeles Center
10:24 34.1039 -118.8289 157° South 461 531 19,200 -2,460 Descending Los Angeles Center
10:26 33.9967 -118.7683 155° Southeast 425 489 16,300 -2,520 Descending Los Angeles Center
10:27 33.8931 -118.7117 156° South 387 445 14,000 -1,200 Descending Los Angeles Center
10:28 33.8081 -118.6814 164° South 355 409 13,900 -780 Descending Los Angeles Center
10:29 33.7269 -118.6528 164° South 305 351 12,400 -1,860 Descending Los Angeles Center
10:30 33.6394 -118.6053 156° South 297 342 10,100 -1,980 Descending Los Angeles Center
10:31 33.6106 -118.5175 112° Southeast 287 330 8,400 -1,920 Descending Los Angeles Center
10:32 33.5994 -118.4258 98° East 287 330 6,200 -1,740 Descending Los Angeles Center
10:33 33.6061 -118.3322 85° East 292 336 4,900 -660 Descending Los Angeles Center
10:34 33.6325 -118.2258 73° East 288 331 4,900  Level Los Angeles Center
10:35 33.6542 -118.1364 74° East 287 330 4,900  Level Los Angeles Center
10:36 33.6758 -118.0469 74° East 285 328 4,900  Level Los Angeles Center
10:37 33.7081 -117.9747 62° Northeast 259 298 4,900  Level Los Angeles Center
10:38 33.7486 -117.9269 44° Northeast 223 257 4,900 -300 Level Los Angeles Center
10:39 33.8000 -117.8833 35° Northeast 202 232 4,400 -720 Descending Southern California TRACON
10:41 33.8667 -117.8000 46° Northeast 198 228 3,000 -540 Descending Southern California TRACON
10:43 33.7833 -117.8000 180° South 154 177 2,400 -480 Descending Southern California TRACON
10:44 33.7500 -117.8167 203° Southwest 132 152 1,700 -720 Descending Southern California TRACON
10:48 33.6757 -117.8682 196° South  Level Estimated
10:55 33.6757 -117.8682 196° South  Level Estimated
10:56 33.6757 -117.8682 17° North  Level Estimated
10:57 33.6757 -117.8682 196° South  Level Estimated
10:58 33.6757 -117.8682 172° South  Level Estimated
10:59 33.6757 -117.8682 196° South  Level Estimated
11:00 33.6757 -117.8682 17° North  Level Estimated
11:01 33.6757 -117.8682 196° South  Level Estimated